首页
METAR-TAF:

METAR-TAF

机场 :

通孔廷国际机场

德古斯加巴, 洪都拉斯

纬度: 14-03N, 经度: 087-13W, 海拔: 994米

当前天气观测

该预报发布于24分钟前的10:00 UTC
风速5节,风向北转西北
温度 21°C
湿度 78%
气压 1019 hPa
能见度10公里或以上
少量云层高于3200英尺

METAR: MHTG 301000Z 33005KT 9999 FEW032 21/17 Q1019 A3009 NOSIG

时间: 04:24 (10:24 UTC)

预报

该预报发布于5小时和34分钟前的04:50 UTC
预报有效从30日的 06点(UTC)到 31日的 06点(UTC)
风速4节,风向多变
能见度10公里或以上
多云层高于3000英尺
成为
从 30日的 10点(UTC)到 30日的 12点(UTC)
能見度: 6000
散云层高于2800英尺
散云层高于10000英尺
成为
从 30日的 16点(UTC)到 30日的 18点(UTC)
风速12节,风向东转东北
能见度10公里或以上
散云层高于3400英尺, 塔状积云.
短暂存在
从 30日的 20点(UTC)到 30日的 24点(UTC)
能見度: 6000
散云层高于3600英尺, 塔状积云.
少量云层高于3800英尺, 积雨云.
成为
从 31日的 01点(UTC)到 31日的 03点(UTC)
风速5节,风向
散云层高于3200英尺
少量云层高于3600英尺, 积雨云.

TAF: MHTG 300450Z 3006/3106 VRB04KT 9999 BKN030 TX29/3021Z TN20/3012Z BECMG 3010/3012 6000 SCT028 SCT100 BECMG 3016/3018 06012KT 9999 SCT034TCU TEMPO 3020/3024 6000 TSSHRA SCT036TCU FEW038CB BECMG 3101/3103 36005KT SCT032 FEW036CB

超过4000个机场的气象观测和天气预报(METAR&TAF报告)。

可查询的气象台以黄色和红色小点在地图上表示。

将鼠标移到小点上方,可查看气象台名称。

然后点击查看天气观测和预报。

如需切换地图:点击带黑十字的绿色按钮放大地图;点击带横线的绿色按钮缩小地图;或者点击绿色箭头查看邻近地区的地图。


METAR-TAF: